Time;durP1;ratioP1;P1;durP2;ratioP2;P2;SDS_P1;SDS_P2;PMS_P1;PMS_P2;Temp;Humidity;BMP_temperature;BMP_pressure;BME280_temperature;BME280_humidity;BME280_pressure;Samples;Min_cycle;Max_cycle;Signal;HPM_P1;HPM_P2
2020/12/09 00:01:49;;;;;;;23.25;14.63;;;2.80;99.90;;;;;;5033453;28;20025;-92
2020/12/09 00:04:39;;;;;;;21.63;14.40;;;2.80;99.90;;;;;;5032484;28;20045;-92
2020/12/09 00:07:11;;;;;;;20.88;13.50;;;2.80;99.90;;;;;;5011884;28;20068;-92
2020/12/09 00:09:47;;;;;;;20.42;13.02;;;2.80;99.90;;;;;;5029728;28;20060;-91
2020/12/09 00:12:27;;;;;;;21.13;14.23;;;2.70;99.90;;;;;;5012155;28;20393;-92
2020/12/09 00:14:54;;;;;;;21.20;14.02;;;2.70;99.90;;;;;;5031684;28;20252;-91
2020/12/09 00:17:21;;;;;;;21.83;14.80;;;2.60;99.90;;;;;;5031735;28;20053;-94
2020/12/09 00:19:56;;;;;;;23.38;14.77;;;2.60;99.90;;;;;;5016815;28;20022;-95
2020/12/09 00:22:34;;;;;;;21.70;14.95;;;2.60;99.90;;;;;;5000696;28;20496;-94
2020/12/09 00:25:03;;;;;;;22.42;14.25;;;2.60;99.90;;;;;;5038280;28;20034;-94
2020/12/09 00:27:32;;;;;;;22.95;14.43;;;2.70;99.90;;;;;;5020026;28;20120;-93
2020/12/09 00:30:01;;;;;;;23.88;14.18;;;2.70;99.90;;;;;;5020742;28;20083;-92
2020/12/09 00:32:35;;;;;;;22.52;14.43;;;2.70;99.90;;;;;;5021086;28;20034;-93
2020/12/09 00:35:08;;;;;;;24.27;15.48;;;2.70;99.90;;;;;;5020488;28;20120;-92
2020/12/09 00:37:47;;;;;;;22.23;14.32;;;2.80;99.90;;;;;;5020464;28;20057;-92
2020/12/09 00:40:19;;;;;;;23.77;14.48;;;2.80;99.90;;;;;;5036857;28;20112;-92
2020/12/09 00:42:55;;;;;;;22.45;14.32;;;2.80;99.90;;;;;;5017652;28;20052;-93
2020/12/09 00:45:51;;;;;;;23.60;14.52;;;2.80;99.90;;;;;;5020309;28;20556;-91
2020/12/09 00:48:18;;;;;;;22.20;14.40;;;2.80;99.90;;;;;;5024135;28;20024;-94
2020/12/09 00:50:47;;;;;;;26.00;15.95;;;2.80;99.90;;;;;;5013206;28;20022;-94
2020/12/09 00:53:16;;;;;;;21.92;14.52;;;2.80;99.90;;;;;;5020926;28;20067;-94
2020/12/09 00:55:44;;;;;;;24.80;15.23;;;2.70;99.90;;;;;;5047013;28;20037;-94
2020/12/09 00:58:17;;;;;;;27.48;17.35;;;2.70;99.90;;;;;;5030491;28;20029;-93
2020/12/09 01:00:48;;;;;;;25.27;15.60;;;2.70;99.90;;;;;;5009895;28;20060;-92
2020/12/09 01:03:17;;;;;;;22.58;14.85;;;2.70;99.90;;;;;;5018782;28;20417;-93
2020/12/09 01:05:49;;;;;;;24.92;16.90;;;2.70;99.90;;;;;;5011033;28;20074;-92
2020/12/09 01:08:28;;;;;;;25.50;16.38;;;2.70;99.90;;;;;;5009468;28;20033;-93
2020/12/09 01:11:01;;;;;;;26.00;15.18;;;2.70;99.90;;;;;;5020411;28;20029;-94
2020/12/09 01:13:27;;;;;;;24.90;16.35;;;2.70;99.90;;;;;;5005849;28;20080;-93
2020/12/09 01:15:59;;;;;;;24.40;15.38;;;2.60;99.90;;;;;;5020997;28;20037;-92
2020/12/09 01:18:25;;;;;;;22.75;14.35;;;2.60;99.90;;;;;;5005966;28;20378;-93
2020/12/09 01:20:58;;;;;;;24.15;14.82;;;2.50;99.90;;;;;;5009579;28;20033;-93
2020/12/09 01:23:29;;;;;;;21.67;13.75;;;2.50;99.90;;;;;;5003042;28;20026;-93
2020/12/09 01:25:58;;;;;;;22.23;14.52;;;2.40;99.90;;;;;;5001307;28;20038;-95
2020/12/09 01:28:44;;;;;;;23.63;14.70;;;2.40;99.90;;;;;;5028321;28;20374;-94
2020/12/09 01:31:10;;;;;;;20.92;13.48;;;2.40;99.90;;;;;;5028690;28;20076;-93
2020/12/09 01:33:46;;;;;;;22.50;13.95;;;2.30;99.90;;;;;;5035871;28;20029;-93
2020/12/09 01:36:28;;;;;;;21.33;13.60;;;2.30;99.90;;;;;;5019235;28;20030;-93
2020/12/09 01:38:57;;;;;;;20.40;12.93;;;2.20;99.90;;;;;;5017063;28;20061;-93
2020/12/09 01:41:34;;;;;;;23.33;15.50;;;2.20;99.90;;;;;;5034803;28;20491;-94
2020/12/09 01:44:05;;;;;;;21.90;13.93;;;2.10;99.90;;;;;;5034917;28;20036;-94
2020/12/09 01:46:35;;;;;;;24.15;15.50;;;2.00;99.90;;;;;;5017111;28;20568;-94
2020/12/09 01:49:17;;;;;;;22.92;15.48;;;1.90;99.90;;;;;;5035292;28;20025;-93
2020/12/09 01:51:46;;;;;;;24.30;14.82;;;1.90;99.90;;;;;;5034510;28;20030;-95
2020/12/09 01:54:12;;;;;;;22.88;14.63;;;1.90;99.90;;;;;;5033914;28;20112;-94
2020/12/09 01:56:46;;;;;;;20.48;13.68;;;1.70;99.90;;;;;;5033928;28;20121;-94
2020/12/09 01:59:15;;;;;;;23.98;13.25;;;1.70;99.90;;;;;;5016822;28;20053;-95
2020/12/09 02:01:41;;;;;;;20.02;13.23;;;1.70;99.90;;;;;;5017076;28;20466;-94
2020/12/09 02:04:06;;;;;;;19.00;12.25;;;1.70;99.90;;;;;;5018139;28;20037;-93
2020/12/09 02:06:35;;;;;;;20.58;13.45;;;1.70;99.90;;;;;;5002183;28;20068;-95
2020/12/09 02:09:04;;;;;;;18.38;12.57;;;1.70;99.90;;;;;;5018590;28;20461;-93
2020/12/09 02:11:34;;;;;;;17.48;11.40;;;1.60;99.90;;;;;;5018541;28;20079;-94
2020/12/09 02:14:09;;;;;;;17.85;12.32;;;1.60;99.90;;;;;;5018327;28;20030;-95
2020/12/09 02:16:57;;;;;;;19.83;13.27;;;1.60;99.90;;;;;;5035207;28;20104;-94
2020/12/09 02:19:29;;;;;;;19.60;12.73;;;1.50;99.90;;;;;;5002282;28;20033;-93
2020/12/09 02:22:12;;;;;;;20.02;12.63;;;1.50;99.90;;;;;;5018595;28;20108;-94
2020/12/09 02:24:43;;;;;;;20.17;12.50;;;1.50;99.90;;;;;;5018180;28;20040;-96
2020/12/09 02:27:10;;;;;;;21.92;12.95;;;1.50;99.90;;;;;;5018093;28;20385;-94
2020/12/09 02:30:02;;;;;;;21.00;13.80;;;1.60;99.90;;;;;;5018383;28;20025;-94
2020/12/09 02:32:34;;;;;;;20.92;13.20;;;1.70;99.90;;;;;;5034769;28;20489;-95
2020/12/09 02:35:14;;;;;;;23.10;13.73;;;1.70;99.90;;;;;;5018278;28;20116;-96
2020/12/09 02:37:40;;;;;;;25.35;15.32;;;1.80;99.90;;;;;;5017811;28;20026;-95
2020/12/09 02:40:06;;;;;;;25.50;15.45;;;1.80;99.90;;;;;;5001155;28;20063;-94
2020/12/09 02:42:35;;;;;;;26.05;15.32;;;1.90;99.90;;;;;;5018118;28;20112;-95
2020/12/09 02:45:04;;;;;;;31.92;17.48;;;2.00;99.90;;;;;;5017474;28;20072;-94
2020/12/09 02:47:32;;;;;;;28.08;16.95;;;2.00;99.90;;;;;;5001281;28;20156;-94
2020/12/09 02:50:04;;;;;;;32.90;18.40;;;2.00;99.90;;;;;;5018697;28;20112;-93
2020/12/09 02:52:36;;;;;;;28.85;16.73;;;2.00;99.90;;;;;;5017108;28;20036;-95
2020/12/09 02:55:18;;;;;;;27.48;16.67;;;2.10;99.90;;;;;;5018781;28;20037;-95
2020/12/09 02:58:05;;;;;;;;;;;;;;;;;;;;;
2020/12/09 03:00:42;;;;;;;29.00;17.05;;;2.10;99.90;;;;;;5017221;28;20040;-95
2020/12/09 03:03:16;;;;;;;26.00;16.23;;;2.10;99.90;;;;;;5015959;28;20100;-93
2020/12/09 03:05:51;;;;;;;24.73;14.80;;;2.20;99.90;;;;;;5017841;28;20064;-95
2020/12/09 03:08:18;;;;;;;26.33;16.23;;;2.20;99.90;;;;;;5018336;28;20077;-94
2020/12/09 03:11:02;;;;;;;27.13;16.00;;;2.20;99.90;;;;;;5017737;28;20056;-93
2020/12/09 03:13:44;;;;;;;;;;;2.30;99.90;;;;;;5017917;28;20027;-94
2020/12/09 03:16:10;;;;;;;22.77;14.27;;;2.30;99.90;;;;;;5017777;28;19909;-95
2020/12/09 03:18:37;;;;;;;22.38;14.32;;;2.30;99.90;;;;;;5017026;28;20032;-94
2020/12/09 03:21:06;;;;;;;21.67;13.18;;;2.30;99.90;;;;;;5017938;28;20036;-95
2020/12/09 03:23:41;;;;;;;25.38;15.18;;;2.40;99.90;;;;;;5034826;28;20017;-94
2020/12/09 03:26:07;;;;;;;;;;;2.50;99.90;;;;;;5017499;28;20029;-94
2020/12/09 03:28:37;;;;;;;20.50;12.95;;;2.50;99.90;;;;;;5034917;28;19928;-94
2020/12/09 03:31:04;;;;;;;23.33;14.30;;;2.50;99.90;;;;;;5001008;28;20038;-93
2020/12/09 03:33:31;;;;;;;30.20;17.70;;;2.50;99.90;;;;;;5017439;28;20386;-92
2020/12/09 03:36:07;;;;;;;28.75;17.73;;;2.50;99.90;;;;;;5034925;28;20029;-94
2020/12/09 03:38:35;;;;;;;30.02;18.92;;;2.60;99.90;;;;;;5017551;28;20037;-92
2020/12/09 03:41:08;;;;;;;32.78;18.95;;;2.60;99.90;;;;;;5017448;28;20022;-94
2020/12/09 03:43:34;;;;;;;31.15;17.48;;;2.70;99.90;;;;;;5017061;28;20021;-93
2020/12/09 03:46:05;;;;;;;32.45;17.85;;;2.70;99.90;;;;;;5034399;28;20058;-93
2020/12/09 03:48:31;;;;;;;30.40;17.80;;;2.70;99.90;;;;;;5034855;28;20068;-94
2020/12/09 03:50:57;;;;;;;29.70;16.67;;;2.80;99.90;;;;;;5017040;28;20032;-93
2020/12/09 03:53:22;;;;;;;36.13;19.55;;;2.80;99.90;;;;;;5016752;28;20025;-95
2020/12/09 03:55:49;;;;;;;34.72;18.92;;;2.80;99.90;;;;;;5016422;28;20032;-94
2020/12/09 03:58:17;;;;;;;37.90;19.13;;;2.90;99.90;;;;;;5003456;28;20461;-94
2020/12/09 04:00:50;;;;;;;34.30;18.73;;;2.90;99.90;;;;;;5020655;28;20025;-93
2020/12/09 04:03:19;;;;;;;41.72;20.65;;;2.90;99.90;;;;;;5021282;28;20025;-92
2020/12/09 04:05:44;;;;;;;47.47;23.00;;;3.00;99.90;;;;;;5020776;28;20034;-92
2020/12/09 04:08:13;;;;;;;46.90;23.58;;;3.00;99.90;;;;;;5021229;28;20076;-93
2020/12/09 04:10:39;;;;;;;50.53;25.92;;;3.00;99.90;;;;;;5021017;28;20022;-94
2020/12/09 04:13:08;;;;;;;51.22;25.92;;;3.10;99.90;;;;;;5020193;28;20412;-92
2020/12/09 04:15:38;;;;;;;48.92;25.23;;;3.10;99.90;;;;;;5004560;28;20405;-93
2020/12/09 04:18:04;;;;;;;49.33;25.38;;;3.10;99.90;;;;;;5037486;28;20030;-92
2020/12/09 04:20:44;;;;;;;49.20;24.50;;;3.20;99.90;;;;;;5037576;28;20037;-94
2020/12/09 04:23:09;;;;;;;49.60;25.65;;;3.20;99.90;;;;;;5020741;28;20401;-92
2020/12/09 04:25:35;;;;;;;49.42;25.17;;;3.20;99.90;;;;;;5037924;28;20033;-93
2020/12/09 04:28:01;;;;;;;51.78;26.27;;;3.20;99.90;;;;;;5020056;28;20120;-93
2020/12/09 04:30:29;;;;;;;66.70;32.47;;;3.20;99.90;;;;;;5037808;28;20036;-92
2020/12/09 04:32:55;;;;;;;59.95;30.27;;;3.20;99.90;;;;;;5020645;28;20022;-93
2020/12/09 04:35:20;;;;;;;65.20;31.70;;;3.20;99.90;;;;;;5004290;28;20038;-93
2020/12/09 04:37:47;;;;;;;67.10;33.38;;;3.20;99.90;;;;;;5020437;28;20112;-92
2020/12/09 04:40:13;;;;;;;71.03;32.80;;;3.20;99.90;;;;;;5020073;28;20032;-93
2020/12/09 04:42:53;;;;;;;71.97;34.45;;;3.20;99.90;;;;;;5038061;28;20057;-92
2020/12/09 04:45:19;;;;;;;82.28;40.97;;;3.20;99.90;;;;;;5020067;28;20075;-92
2020/12/09 04:47:48;;;;;;;85.22;40.50;;;3.20;99.90;;;;;;5020023;28;20108;-92
2020/12/09 04:50:26;;;;;;;75.07;37.83;;;3.10;99.90;;;;;;5020177;28;20026;-93
2020/12/09 04:53:06;;;;;;;72.90;35.67;;;3.10;99.90;;;;;;4988320;28;20046;-93
2020/12/09 04:55:40;;;;;;;77.57;37.95;;;3.10;99.90;;;;;;5019838;28;20037;-93
2020/12/09 04:58:18;;;;;;;78.03;36.72;;;3.10;99.90;;;;;;5019644;28;20025;-90
2020/12/09 05:00:45;;;;;;;68.45;33.08;;;3.20;99.90;;;;;;5019844;28;20112;-92
2020/12/09 05:03:22;;;;;;;73.60;34.97;;;3.10;99.90;;;;;;5019895;28;20445;-92
2020/12/09 05:05:48;;;;;;;70.50;34.72;;;3.10;99.90;;;;;;5019807;28;20021;-93
2020/12/09 05:08:22;;;;;;;84.63;40.72;;;3.20;99.90;;;;;;5019135;28;20084;-93
2020/12/09 05:11:00;;;;;;;87.75;43.97;;;3.10;99.90;;;;;;5019533;28;20087;-93
2020/12/09 05:13:34;;;;;;;79.10;40.80;;;3.10;99.90;;;;;;5037311;28;20071;-92
2020/12/09 05:16:05;;;;;;;69.65;35.33;;;3.20;99.90;;;;;;5019500;28;20064;-94
2020/12/09 05:18:42;;;;;;;72.38;35.55;;;3.10;99.90;;;;;;5019513;28;20112;-93
2020/12/09 05:21:14;;;;;;;68.80;34.63;;;3.10;99.90;;;;;;5019408;28;20025;-91
2020/12/09 05:23:56;;;;;;;72.22;36.38;;;3.10;99.90;;;;;;5021752;28;20025;-92
2020/12/09 05:26:39;;;;;;;82.18;39.42;;;3.00;99.90;;;;;;5024484;28;20113;-93
2020/12/09 05:29:24;;;;;;;72.20;37.25;;;3.00;99.90;;;;;;5028214;28;20025;-93
2020/12/09 05:32:05;;;;;;;78.35;38.78;;;2.90;99.90;;;;;;5039667;28;20051;-93
2020/12/09 05:34:38;;;;;;;68.95;34.63;;;2.90;99.90;;;;;;5056391;28;20080;-94
2020/12/09 05:37:09;;;;;;;68.68;34.40;;;2.90;99.90;;;;;;5006286;28;20128;-95
2020/12/09 05:39:57;;;;;;;62.75;31.60;;;2.90;99.90;;;;;;5037833;28;20021;-92
2020/12/09 05:42:23;;;;;;;67.70;34.03;;;2.90;99.90;;;;;;5019399;28;20120;-94
2020/12/09 05:44:55;;;;;;;61.22;31.33;;;2.90;99.90;;;;;;5016003;28;20052;-92
2020/12/09 05:47:24;;;;;;;61.67;31.48;;;2.90;99.90;;;;;;4999761;28;20540;-93
2020/12/09 05:49:51;;;;;;;68.93;35.03;;;2.90;99.90;;;;;;4992374;28;20085;-92
2020/12/09 05:52:30;;;;;;;68.75;34.67;;;3.00;99.90;;;;;;5009999;28;20039;-92
2020/12/09 05:54:55;;;;;;;70.00;33.40;;;3.00;99.90;;;;;;4996909;28;20038;-92
2020/12/09 05:57:25;;;;;;;72.38;35.38;;;3.00;99.90;;;;;;5014485;28;20025;-92
2020/12/09 06:00:36;;;;;;;67.93;33.33;;;3.00;99.90;;;;;;4997069;28;20101;-93
2020/12/09 06:03:22;;;;;;;66.15;31.95;;;2.90;99.90;;;;;;4997742;28;20053;-92
2020/12/09 06:06:14;;;;;;;71.13;33.17;;;3.00;99.90;;;;;;4995975;28;20038;-93
2020/12/09 06:08:55;;;;;;;67.53;32.78;;;3.00;99.90;;;;;;4996247;28;20041;-92
2020/12/09 06:11:24;;;;;;;66.80;32.40;;;3.00;99.90;;;;;;4996403;28;20037;-93
2020/12/09 06:13:50;;;;;;;76.97;35.55;;;3.00;99.90;;;;;;4996590;28;20018;-94
2020/12/09 06:16:20;;;;;;;91.00;44.10;;;3.00;99.90;;;;;;4996247;28;20020;-93
2020/12/09 06:18:59;;;;;;;82.68;40.42;;;3.00;99.90;;;;;;4996040;28;20025;-93
2020/12/09 06:21:24;;;;;;;87.18;39.28;;;3.00;99.90;;;;;;4994779;28;20057;-93
2020/12/09 06:26:58;;;;;;;76.82;34.28;;;3.00;99.90;;;;;;4988711;28;20469;-93
2020/12/09 06:29:23;;;;;;;78.15;34.75;;;3.00;99.90;;;;;;5014994;28;20018;-94
2020/12/09 06:32:04;;;;;;;90.90;42.33;;;3.00;99.90;;;;;;4981700;28;20080;-94
2020/12/09 06:34:36;;;;;;;114.70;49.92;;;3.00;99.90;;;;;;4999163;28;20033;-96
2020/12/09 06:37:19;;;;;;;96.18;43.13;;;3.00;99.90;;;;;;4982298;28;20037;-94
2020/12/09 06:40:21;;;;;;;96.20;40.72;;;2.90;99.90;;;;;;4997710;28;20457;-95
2020/12/09 06:42:50;;;;;;;94.88;40.53;;;2.90;99.90;;;;;;5015315;28;20034;-93
2020/12/09 06:45:16;;;;;;;93.78;37.92;;;2.90;99.90;;;;;;5004241;28;20100;-93
2020/12/09 06:47:41;;;;;;;86.80;36.88;;;2.90;99.90;;;;;;5016885;28;20052;-93
2020/12/09 06:50:28;;;;;;;80.95;34.75;;;2.90;99.90;;;;;;5016881;28;20022;-93
2020/12/09 06:53:25;;;;;;;79.95;34.38;;;3.00;99.90;;;;;;5016658;28;20465;-94
2020/12/09 06:56:11;;;;;;;83.68;33.42;;;2.90;99.90;;;;;;5014201;28;20029;-93
2020/12/09 06:58:41;;;;;;;82.13;34.30;;;2.90;99.90;;;;;;5016446;28;20029;-93
2020/12/09 07:01:10;;;;;;;70.57;31.08;;;2.90;99.90;;;;;;5000991;28;20040;-92
2020/12/09 07:03:54;;;;;;;66.88;30.73;;;2.90;99.90;;;;;;5035386;28;20088;-92
2020/12/09 07:06:29;;;;;;;80.75;34.95;;;2.90;99.90;;;;;;5035693;28;20026;-93
2020/12/09 07:08:58;;;;;;;93.63;39.65;;;2.90;99.90;;;;;;5034609;28;20530;-94
2020/12/09 07:12:01;;;;;;;112.28;47.95;;;2.90;99.90;;;;;;5016951;28;20029;-95
2020/12/09 07:14:39;;;;;;;104.50;45.40;;;2.80;99.90;;;;;;5017462;28;20120;-94
2020/12/09 07:17:11;;;;;;;99.43;44.97;;;2.80;99.90;;;;;;5001995;28;20025;-95
2020/12/09 07:19:38;;;;;;;104.45;40.70;;;2.80;99.90;;;;;;5017165;28;20018;-95
2020/12/09 07:22:04;;;;;;;156.05;50.42;;;2.80;99.90;;;;;;5017550;28;20045;-94
2020/12/09 07:27:26;;;;;;;100.10;38.28;;;2.70;99.90;;;;;;5019852;28;20517;-94
2020/12/09 07:30:05;;;;;;;108.53;40.10;;;2.70;99.90;;;;;;4999018;28;20041;-94
2020/12/09 07:32:31;;;;;;;123.82;38.97;;;2.60;99.90;;;;;;5034494;28;20132;-94
2020/12/09 07:35:02;;;;;;;83.20;35.05;;;2.60;99.90;;;;;;5036790;28;20556;-93
2020/12/09 07:37:33;;;;;;;67.90;32.45;;;2.50;99.90;;;;;;5019209;28;20502;-94
2020/12/09 07:40:27;;;;;;;61.00;30.85;;;2.40;99.90;;;;;;5019585;28;20478;-95
2020/12/09 07:43:25;;;;;;;;;;;;;;;;;;;;;
2020/12/09 07:45:51;;;;;;;88.65;33.20;;;2.20;99.90;;;;;;5035421;28;20049;-96
2020/12/09 07:48:18;;;;;;;126.78;39.25;;;2.10;99.90;;;;;;5019520;28;20116;-95
2020/12/09 07:50:52;;;;;;;59.58;31.95;;;2.00;99.90;;;;;;5037372;28;20025;-94
2020/12/09 07:53:19;;;;;;;66.40;30.73;;;2.00;99.90;;;;;;5020093;28;20018;-95
2020/12/09 07:55:45;;;;;;;62.80;31.20;;;1.90;99.90;;;;;;5020349;28;20022;-93
2020/12/09 07:58:17;;;;;;;71.45;30.75;;;1.80;99.90;;;;;;5020218;28;20029;-96
2020/12/09 08:00:52;;;;;;;61.42;28.55;;;1.70;99.90;;;;;;5019825;28;20362;-96
2020/12/09 08:03:28;;;;;;;68.25;30.13;;;1.60;99.90;;;;;;5004494;28;20030;-96
2020/12/09 08:05:59;;;;;;;62.42;29.88;;;1.60;99.90;;;;;;5019712;28;20047;-95
2020/12/09 08:08:27;;;;;;;78.53;31.85;;;1.60;99.90;;;;;;5020187;28;20043;-95
2020/12/09 08:10:54;;;;;;;85.82;33.10;;;1.60;99.90;;;;;;5019810;28;20044;-94
2020/12/09 08:13:48;;;;;;;91.53;37.45;;;1.60;99.90;;;;;;5042492;28;20100;-93
2020/12/09 08:16:14;;;;;;;;;;;1.50;99.90;;;;;;5038743;28;20030;-94
2020/12/09 08:18:52;;;;;;;67.30;32.40;;;1.50;99.90;;;;;;5030171;28;19988;-94
2020/12/09 08:21:25;;;;;;;67.75;32.55;;;1.40;99.90;;;;;;5030653;28;20029;-95
2020/12/09 08:23:51;;;;;;;69.15;31.80;;;1.40;99.90;;;;;;5028696;28;20035;-95
2020/12/09 08:26:49;;;;;;;77.18;35.30;;;1.40;99.90;;;;;;5021390;28;20064;-94
2020/12/09 08:29:20;;;;;;;117.50;42.17;;;1.40;99.90;;;;;;5019480;28;20025;-96
2020/12/09 08:32:05;;;;;;;85.55;40.40;;;1.40;99.90;;;;;;5020682;28;20056;-93
2020/12/09 08:34:31;;;;;;;82.88;37.30;;;1.30;99.90;;;;;;5004562;28;20148;-92
2020/12/09 08:37:16;;;;;;;79.65;36.38;;;1.30;99.90;;;;;;5020395;28;20049;-94
2020/12/09 08:39:51;;;;;;;72.35;36.05;;;1.30;99.90;;;;;;5020633;28;20473;-94
2020/12/09 08:42:23;;;;;;;88.60;39.25;;;1.30;99.90;;;;;;5020430;28;20025;-94
2020/12/09 08:44:51;;;;;;;75.75;35.67;;;1.30;99.90;;;;;;5020386;28;20030;-93
2020/12/09 08:47:19;;;;;;;70.93;34.33;;;1.30;99.90;;;;;;5006990;28;20549;-95
2020/12/09 08:50:15;;;;;;;;;;;;;;;;;;;;;
2020/12/09 08:52:44;;;;;;;63.33;30.27;;;1.30;99.90;;;;;;5034980;28;20048;-94
2020/12/09 08:55:17;;;;;;;73.43;32.22;;;1.30;99.90;;;;;;5020562;28;20029;-92
2020/12/09 08:57:46;;;;;;;74.60;33.08;;;1.30;99.90;;;;;;5004906;28;20037;-95
2020/12/09 09:00:14;;;;;;;83.32;34.97;;;1.20;99.90;;;;;;5019145;28;20026;-95
2020/12/09 09:03:10;;;;;;;;;;;;;;;;;;;;;
2020/12/09 09:05:45;;;;;;;79.15;34.92;;;1.20;99.90;;;;;;5042002;28;20097;-93
2020/12/09 09:08:11;;;;;;;67.60;32.88;;;1.20;99.90;;;;;;5027204;28;20017;-95
2020/12/09 09:10:41;;;;;;;79.03;36.13;;;1.20;99.90;;;;;;5025729;28;20117;-93
2020/12/09 09:13:11;;;;;;;72.25;33.58;;;1.10;99.90;;;;;;5043378;28;20025;-93
2020/12/09 09:15:38;;;;;;;63.95;30.40;;;1.20;99.90;;;;;;5025904;28;20485;-94
2020/12/09 09:18:18;;;;;;;;;;;;;;;;;;;;;
2020/12/09 09:20:47;;;;;;;60.00;27.50;;;1.20;99.90;;;;;;5046056;28;20076;-95
2020/12/09 09:23:13;;;;;;;75.20;32.63;;;1.30;99.90;;;;;;5028986;28;20068;-93
2020/12/09 09:25:41;;;;;;;77.25;37.30;;;1.30;99.90;;;;;;5025392;28;20026;-94
2020/12/09 09:28:10;;;;;;;90.72;42.47;;;1.30;99.90;;;;;;5025862;28;20022;-95
2020/12/09 09:30:46;;;;;;;104.82;47.00;;;1.40;99.90;;;;;;5025833;28;20085;-92
2020/12/09 09:33:15;;;;;;;89.47;43.70;;;1.40;99.90;;;;;;5026386;28;20450;-95
2020/12/09 09:35:45;;;;;;;81.75;41.13;;;1.30;99.90;;;;;;5029749;28;20033;-95
2020/12/09 09:38:14;;;;;;;78.97;36.83;;;1.30;99.90;;;;;;5032979;28;20033;-95
2020/12/09 09:40:40;;;;;;;81.30;36.20;;;1.30;99.90;;;;;;5033128;28;20021;-94
2020/12/09 09:43:12;;;;;;;79.20;37.05;;;1.30;99.90;;;;;;5037254;28;20025;-93
2020/12/09 09:45:46;;;;;;;68.50;32.75;;;1.30;99.90;;;;;;5035846;28;20094;-94
2020/12/09 09:48:12;;;;;;;81.00;37.20;;;1.30;99.90;;;;;;5017993;28;20029;-94
2020/12/09 09:50:38;;;;;;;84.25;41.35;;;1.30;99.90;;;;;;5019657;28;20037;-93
2020/12/09 09:53:09;;;;;;;83.78;39.00;;;1.40;99.90;;;;;;5017442;28;20109;-93
2020/12/09 09:55:50;;;;;;;103.30;47.83;;;1.30;99.90;;;;;;5019853;28;20305;-93
2020/12/09 09:58:29;;;;;;;91.57;45.15;;;1.30;99.90;;;;;;5017575;28;20014;-93
2020/12/09 10:01:05;;;;;;;;;;;;;;;;;;;;;
2020/12/09 10:03:34;;;;;;;94.38;44.50;;;1.30;99.90;;;;;;5020500;28;20144;-94
2020/12/09 10:06:25;;;;;;;82.38;41.53;;;1.20;99.90;;;;;;5023080;28;20064;-94
2020/12/09 10:09:01;;;;;;;;;;;;;;;;;;;;;
2020/12/09 10:11:30;;;;;;;97.78;46.22;;;1.20;99.90;;;;;;5037881;28;20117;-94
2020/12/09 10:13:59;;;;;;;85.68;42.40;;;1.30;99.90;;;;;;5019514;28;20548;-94
2020/12/09 10:16:44;;;;;;;90.18;42.08;;;1.30;99.90;;;;;;5018901;28;20032;-93
2020/12/09 10:19:10;;;;;;;94.03;44.67;;;1.30;99.90;;;;;;5020870;28;20052;-93
2020/12/09 10:21:40;;;;;;;91.53;45.60;;;1.30;99.90;;;;;;5040143;28;20532;-93
2020/12/09 10:24:07;;;;;;;95.88;47.25;;;1.30;99.90;;;;;;5022415;28;20052;-92
2020/12/09 10:26:48;;;;;;;87.57;42.05;;;1.20;99.90;;;;;;5040807;28;20025;-93
2020/12/09 10:29:26;;;;;;;86.72;40.53;;;1.30;99.90;;;;;;5023086;28;20044;-94
2020/12/09 10:31:52;;;;;;;89.50;42.42;;;1.30;99.90;;;;;;5022251;28;20039;-94
2020/12/09 10:34:19;;;;;;;87.80;42.50;;;1.30;99.90;;;;;;5023172;28;20112;-93
2020/12/09 10:36:48;;;;;;;94.57;45.17;;;1.40;99.90;;;;;;5022311;28;20064;-94
2020/12/09 10:39:27;;;;;;;90.20;45.08;;;1.40;99.90;;;;;;5021521;28;20052;-95
2020/12/09 10:42:04;;;;;;;96.63;47.75;;;1.40;99.90;;;;;;5020151;28;20117;-94
2020/12/09 10:44:33;;;;;;;111.85;50.47;;;1.40;99.90;;;;;;5019757;28;20022;-93
2020/12/09 10:47:04;;;;;;;101.47;46.72;;;1.40;99.90;;;;;;5018907;28;20058;-93
2020/12/09 10:49:43;;;;;;;92.00;44.47;;;1.40;99.90;;;;;;5037873;28;20029;-94
2020/12/09 10:52:25;;;;;;;;;;;;;;;;;;;;;
2020/12/09 10:55:01;;;;;;;97.38;45.65;;;1.40;99.90;;;;;;5036515;28;20136;-93
2020/12/09 10:57:33;;;;;;;89.53;41.70;;;1.40;99.90;;;;;;5035736;28;20030;-94
2020/12/09 11:00:24;;;;;;;97.53;45.70;;;1.40;99.90;;;;;;5019732;28;20040;-95
2020/12/09 11:03:03;;;;;;;81.32;40.28;;;1.40;99.90;;;;;;5022682;28;20036;-94
2020/12/09 11:06:02;;;;;;;;;;;;;;;;;;;;;
2020/12/09 11:08:33;;;;;;;91.30;43.60;;;1.30;99.90;;;;;;5036610;28;20429;-95
2020/12/09 11:11:04;;;;;;;96.78;44.25;;;1.30;99.90;;;;;;5036675;28;20026;-93
2020/12/09 11:13:42;;;;;;;89.78;45.17;;;1.30;99.90;;;;;;5037126;28;20048;-94
2020/12/09 11:16:19;;;;;;;87.22;41.47;;;1.20;99.90;;;;;;5034743;28;20065;-93
2020/12/09 11:18:47;;;;;;;91.28;41.88;;;1.20;99.90;;;;;;5036349;28;20022;-93
2020/12/09 11:21:23;;;;;;;84.15;40.20;;;1.20;99.90;;;;;;5034779;28;20029;-93
2020/12/09 11:24:22;;;;;;;95.90;42.55;;;1.20;99.90;;;;;;5032602;28;20074;-94
2020/12/09 11:26:59;;;;;;;91.75;40.08;;;1.20;99.90;;;;;;5032956;28;20025;-92
2020/12/09 11:29:25;;;;;;;86.10;41.03;;;1.20;99.90;;;;;;5033880;28;20030;-93
2020/12/09 11:31:54;;;;;;;77.97;37.60;;;1.20;99.90;;;;;;5031598;28;20044;-90
2020/12/09 11:34:22;;;;;;;79.43;35.78;;;1.20;99.90;;;;;;5034685;28;20033;-92
2020/12/09 11:36:48;;;;;;;78.90;37.97;;;1.20;99.90;;;;;;5035010;28;20032;-92
2020/12/09 11:39:17;;;;;;;84.60;37.65;;;1.20;99.90;;;;;;5032635;28;20025;-93
2020/12/09 11:41:53;;;;;;;81.70;38.67;;;1.20;99.90;;;;;;5033192;28;20026;-93
2020/12/09 11:44:19;;;;;;;83.60;38.13;;;1.20;99.90;;;;;;5033231;28;20037;-92
2020/12/09 11:46:49;;;;;;;77.95;35.72;;;1.20;99.90;;;;;;5024495;28;20376;-93
2020/12/09 11:49:15;;;;;;;84.53;38.40;;;1.20;99.90;;;;;;4995785;28;20052;-91
2020/12/09 11:51:48;;;;;;;85.55;38.70;;;1.20;99.90;;;;;;4996513;28;20050;-93
2020/12/09 11:54:24;;;;;;;;;;;;;;;;;;;;;
2020/12/09 11:57:18;;;;;;;102.10;42.95;;;1.30;99.90;;;;;;5015832;28;20026;-93
2020/12/09 12:00:10;;;;;;;81.60;36.25;;;1.30;99.90;;;;;;4981489;28;20025;-94
2020/12/09 12:02:58;;;;;;;106.07;41.40;;;1.40;99.90;;;;;;4997546;28;20374;-95
2020/12/09 12:05:46;;;;;;;104.97;43.70;;;1.40;99.90;;;;;;4982892;28;20069;-95
2020/12/09 12:08:21;;;;;;;90.13;38.75;;;1.30;99.90;;;;;;4985091;28;20034;-95
2020/12/09 12:14:17;;;;;;;98.30;38.60;;;1.50;99.90;;;;;;4996523;28;20033;-94
2020/12/09 12:16:50;;;;;;;104.05;40.25;;;1.60;99.90;;;;;;4993746;28;20057;-94
2020/12/09 12:19:18;;;;;;;121.68;45.67;;;1.60;99.90;;;;;;5000803;28;20027;-94
2020/12/09 12:21:48;;;;;;;103.53;42.03;;;1.70;99.90;;;;;;4982859;28;20033;-92
2020/12/09 12:24:59;;;;;;;96.95;38.90;;;1.70;99.90;;;;;;4983598;28;20097;-93
2020/12/09 12:27:27;;;;;;;100.70;38.90;;;1.80;99.90;;;;;;4958316;28;20045;-93
2020/12/09 12:29:53;;;;;;;116.18;46.53;;;1.90;99.90;;;;;;5019786;28;20064;-93
2020/12/09 12:35:39;;;;;;;127.05;46.28;;;1.90;99.90;;;;;;4999552;28;20048;-93
2020/12/09 12:38:16;;;;;;;122.13;47.00;;;1.90;99.90;;;;;;5015193;28;20460;-93
2020/12/09 12:41:29;;;;;;;;;;;;;;;;;;;;;
2020/12/09 12:43:58;;;;;;;123.32;48.92;;;1.90;99.90;;;;;;5003002;28;20484;-93
2020/12/09 12:47:16;;;;;;;;;;;;;;;;;;;;;
2020/12/09 12:49:57;;;;;;;;;;;;;;;;;;;;;
2020/12/09 12:52:23;;;;;;;109.25;43.47;;;1.80;99.90;;;;;;5043504;28;20108;-93
2020/12/09 12:55:02;;;;;;;103.43;42.28;;;1.90;99.90;;;;;;5017244;28;20113;-93
2020/12/09 12:57:28;;;;;;;117.80;45.97;;;1.90;99.90;;;;;;4998892;28;20037;-92
2020/12/09 12:59:54;;;;;;;117.57;48.70;;;1.90;99.90;;;;;;5013992;28;20029;-94
2020/12/09 13:05:45;;;;;;;114.45;46.33;;;1.90;99.90;;;;;;5043601;28;20029;-94
2020/12/09 13:08:29;;;;;;;109.55;43.67;;;1.80;99.90;;;;;;5020218;28;20037;-91
2020/12/09 13:10:56;;;;;;;109.47;42.58;;;1.90;99.90;;;;;;5017578;28;20045;-92
2020/12/09 13:13:47;;;;;;;114.57;43.92;;;1.90;99.90;;;;;;5016693;28;20481;-93
2020/12/09 13:16:19;;;;;;;112.70;44.53;;;1.90;99.90;;;;;;5016152;28;20052;-91
2020/12/09 13:19:07;;;;;;;115.15;46.10;;;2.00;99.90;;;;;;5034037;28;20457;-92
2020/12/09 13:22:01;;;;;;;106.75;42.22;;;1.90;99.90;;;;;;5015332;28;20037;-93
2020/12/09 13:24:37;;;;;;;99.47;39.42;;;2.00;99.90;;;;;;4974098;28;20477;-93
2020/12/09 13:27:59;;;;;;;96.13;37.78;;;2.00;99.90;;;;;;5053276;28;20061;-93
2020/12/09 13:31:23;;;;;;;100.95;41.55;;;2.10;99.90;;;;;;5034957;28;20018;-92
2020/12/09 13:34:38;;;;;;;104.35;45.03;;;2.10;99.90;;;;;;5027247;28;20018;-92
2020/12/09 13:37:45;;;;;;;98.20;39.42;;;2.10;99.90;;;;;;5014517;28;20037;-92
2020/12/09 13:40:24;;;;;;;92.53;39.25;;;2.10;99.90;;;;;;5016035;28;20060;-93
2020/12/09 13:42:50;;;;;;;93.28;42.85;;;2.10;99.90;;;;;;5013727;28;20035;-92
2020/12/09 13:45:49;;;;;;;96.28;45.42;;;2.10;99.90;;;;;;5023350;28;20053;-92